createdAt,value
2022-12-12T00:01:24.128Z,-4.10
2022-12-12T00:03:51.724Z,-4.10
2022-12-12T00:06:19.138Z,-4.10
2022-12-12T00:08:46.249Z,-4.00
2022-12-12T00:11:14.073Z,-4.10
2022-12-12T00:13:41.491Z,-4.20
2022-12-12T00:16:09.367Z,-4.10
2022-12-12T00:18:39.574Z,-4.10
2022-12-12T00:21:12.034Z,-4.10
2022-12-12T00:23:38.892Z,-4.00
2022-12-12T00:26:09.320Z,-4.00
2022-12-12T00:28:36.309Z,-3.90
2022-12-12T00:31:03.328Z,-4.00
2022-12-12T00:33:30.212Z,-4.00
2022-12-12T00:35:57.502Z,-4.00
2022-12-12T00:38:24.374Z,-3.90
2022-12-12T00:40:56.933Z,-3.90
2022-12-12T00:43:24.431Z,-4.00
2022-12-12T00:45:51.461Z,-4.00
2022-12-12T00:48:18.792Z,-3.90
2022-12-12T00:50:46.769Z,-4.00
2022-12-12T00:53:13.753Z,-3.50
2022-12-12T00:55:40.685Z,-4.00
2022-12-12T00:58:07.562Z,-4.00
2022-12-12T01:00:35.619Z,-4.00
2022-12-12T01:03:02.785Z,-4.00
2022-12-12T01:05:29.844Z,-4.00
2022-12-12T01:07:56.802Z,-4.00
2022-12-12T01:10:23.690Z,-4.00
2022-12-12T01:12:50.993Z,-4.00
2022-12-12T01:15:17.853Z,-3.90
2022-12-12T01:17:44.696Z,-4.00
2022-12-12T01:20:18.484Z,-4.00
2022-12-12T01:22:45.762Z,-4.10
2022-12-12T01:25:14.005Z,-4.10
2022-12-12T01:27:41.767Z,-3.90
2022-12-12T01:30:11.768Z,-4.00
2022-12-12T01:32:38.623Z,-4.00
2022-12-12T01:35:08.419Z,-3.90
2022-12-12T01:37:36.137Z,-3.80
2022-12-12T01:40:05.567Z,-4.00
2022-12-12T01:42:32.686Z,-4.00
2022-12-12T01:44:59.610Z,-4.00
2022-12-12T01:47:26.764Z,-4.00
2022-12-12T01:50:01.693Z,-4.00
2022-12-12T01:52:34.888Z,-4.00
2022-12-12T01:55:05.958Z,-4.00
2022-12-12T01:57:37.986Z,-4.00
2022-12-12T02:00:08.788Z,-4.00
2022-12-12T02:02:37.262Z,-4.00
2022-12-12T02:05:28.738Z,-4.00
2022-12-12T02:07:56.715Z,-4.00
2022-12-12T02:10:23.708Z,-3.90
2022-12-12T02:12:50.764Z,-4.00
2022-12-12T02:15:17.837Z,-4.00
2022-12-12T02:18:18.600Z,-4.00
2022-12-12T02:21:11.338Z,-4.00
2022-12-12T02:23:50.951Z,-4.00
2022-12-12T02:26:36.215Z,-3.90
2022-12-12T02:29:42.160Z,-4.00
2022-12-12T02:32:14.560Z,-4.00
2022-12-12T02:34:41.423Z,-4.10
2022-12-12T02:37:21.849Z,-4.00
2022-12-12T02:40:16.350Z,-4.00
2022-12-12T02:43:13.492Z,-4.10
2022-12-12T02:45:44.111Z,-4.10
2022-12-12T02:48:17.220Z,-4.10
2022-12-12T02:50:47.285Z,-4.10
2022-12-12T02:53:18.581Z,-4.10
2022-12-12T02:55:45.429Z,-4.10
2022-12-12T02:58:13.460Z,-3.90
2022-12-12T03:00:56.007Z,-4.00
2022-12-12T03:04:03.817Z,-4.10
2022-12-12T03:07:18.305Z,-4.10
2022-12-12T03:10:07.009Z,-4.10
2022-12-12T03:12:58.827Z,-4.10
2022-12-12T03:15:36.894Z,-4.20
2022-12-12T03:18:49.588Z,-4.20
2022-12-12T03:21:31.062Z,-4.20
2022-12-12T03:24:03.878Z,-4.20
2022-12-12T03:26:52.043Z,-4.20
2022-12-12T03:29:26.000Z,-4.20
2022-12-12T03:31:58.376Z,-4.20
2022-12-12T03:34:31.314Z,-4.20
2022-12-12T03:37:09.327Z,-4.20
2022-12-12T03:39:42.682Z,-4.20
2022-12-12T03:42:16.567Z,-4.30
2022-12-12T03:44:51.446Z,-4.20
2022-12-12T03:47:35.452Z,-4.20
2022-12-12T03:50:10.249Z,-4.20
2022-12-12T03:52:46.940Z,-4.20
2022-12-12T03:55:37.071Z,-4.30
2022-12-12T03:58:13.944Z,-4.20
2022-12-12T04:00:44.264Z,-4.30
2022-12-12T04:03:18.294Z,-4.30
2022-12-12T04:06:11.500Z,-4.20
2022-12-12T04:08:39.453Z,-4.40
2022-12-12T04:11:36.107Z,-4.30
2022-12-12T04:14:42.013Z,-4.30
2022-12-12T04:17:18.089Z,-4.40
2022-12-12T04:20:15.971Z,-4.30
2022-12-12T04:23:10.719Z,-4.30
2022-12-12T04:26:16.776Z,-4.30
2022-12-12T04:28:58.625Z,-4.40
2022-12-12T04:31:28.668Z,-4.40
2022-12-12T04:34:02.346Z,-4.30
2022-12-12T04:36:31.988Z,-4.30
2022-12-12T04:39:01.215Z,-4.30
2022-12-12T04:41:31.164Z,-4.30
2022-12-12T04:44:00.097Z,-4.40
2022-12-12T04:46:31.274Z,-4.40
2022-12-12T04:49:14.274Z,-4.30
2022-12-12T04:51:45.793Z,-4.20
2022-12-12T04:54:43.236Z,-4.30
2022-12-12T04:57:14.752Z,-4.20
2022-12-12T04:59:41.744Z,-4.30
2022-12-12T05:02:26.190Z,-4.30
2022-12-12T05:04:57.506Z,-4.40
2022-12-12T05:07:39.978Z,-4.40
2022-12-12T05:10:13.287Z,-4.30
2022-12-12T05:12:42.536Z,-4.20
2022-12-12T05:15:10.007Z,-4.40
2022-12-12T05:17:46.603Z,-4.30
2022-12-12T05:20:15.054Z,-4.30
2022-12-12T05:22:42.331Z,-4.40
2022-12-12T05:25:10.364Z,-4.30
2022-12-12T05:27:37.458Z,-4.30
2022-12-12T05:30:05.087Z,-4.40
2022-12-12T05:32:32.019Z,-4.40
2022-12-12T05:34:59.652Z,-4.30
2022-12-12T05:37:26.494Z,-4.40
2022-12-12T05:39:53.437Z,-4.30
2022-12-12T05:42:20.289Z,-4.20
2022-12-12T05:44:47.333Z,-4.30
2022-12-12T05:47:14.269Z,-4.30
2022-12-12T05:49:41.106Z,-4.30
2022-12-12T05:52:07.967Z,-4.30
2022-12-12T05:54:35.304Z,-4.20
2022-12-12T05:57:02.196Z,-4.30
2022-12-12T05:59:31.016Z,-4.20
2022-12-12T06:01:58.501Z,-4.30
2022-12-12T06:04:25.397Z,-4.20
2022-12-12T06:06:52.721Z,-4.20
2022-12-12T06:09:19.776Z,-4.20
2022-12-12T06:11:47.977Z,-4.10
2022-12-12T06:14:14.833Z,-4.20
2022-12-12T06:16:41.709Z,-4.20
2022-12-12T06:19:08.585Z,-4.20
2022-12-12T06:21:35.517Z,-4.20
2022-12-12T06:24:02.473Z,-4.20
2022-12-12T06:26:29.355Z,-4.20
2022-12-12T06:28:56.884Z,-4.20
2022-12-12T06:31:23.865Z,-4.20
2022-12-12T06:33:50.803Z,-4.20
2022-12-12T06:36:26.829Z,-4.00
2022-12-12T06:38:55.577Z,-4.10
2022-12-12T06:41:23.615Z,-4.10
2022-12-12T06:43:51.021Z,-3.90
2022-12-12T06:46:21.578Z,-3.90
2022-12-12T06:48:49.058Z,-3.90
2022-12-12T06:51:22.133Z,-3.90
2022-12-12T06:53:49.662Z,-4.00
2022-12-12T06:56:19.715Z,-3.80
2022-12-12T06:58:47.386Z,-3.80
2022-12-12T07:01:15.905Z,-3.80
2022-12-12T07:03:42.856Z,-3.70
2022-12-12T07:06:10.467Z,-3.80
2022-12-12T07:08:38.292Z,-3.90
2022-12-12T07:11:08.351Z,-3.90
2022-12-12T07:13:35.665Z,-3.90
2022-12-12T07:16:02.598Z,-3.80
2022-12-12T07:18:29.634Z,-3.90
2022-12-12T07:20:56.626Z,-3.90
2022-12-12T07:23:23.851Z,-3.90
2022-12-12T07:25:53.316Z,-3.80
2022-12-12T07:28:20.258Z,-3.90
2022-12-12T07:30:47.833Z,-3.80
2022-12-12T07:33:16.745Z,-3.80
2022-12-12T07:35:44.595Z,-3.70
2022-12-12T07:38:12.247Z,-3.60
2022-12-12T07:40:39.185Z,-3.60
2022-12-12T07:43:06.147Z,-3.60
2022-12-12T07:45:33.232Z,-3.60
2022-12-12T07:48:00.119Z,-3.50
2022-12-12T07:50:27.032Z,-3.50
2022-12-12T07:52:53.918Z,-3.50
2022-12-12T07:55:20.837Z,-3.40
2022-12-12T07:57:47.724Z,-3.40
2022-12-12T08:00:15.175Z,-3.50
2022-12-12T08:02:42.082Z,-3.40
2022-12-12T08:05:09.360Z,-3.40
2022-12-12T08:07:36.388Z,-3.30
2022-12-12T08:10:04.594Z,-3.30
2022-12-12T08:12:32.087Z,-3.30
2022-12-12T08:14:59.092Z,-3.20
2022-12-12T08:17:26.162Z,-3.20
2022-12-12T08:19:53.533Z,-3.20
2022-12-12T08:22:20.790Z,-3.20
2022-12-12T08:24:49.882Z,-3.20
2022-12-12T08:27:16.877Z,-3.10
2022-12-12T08:29:44.507Z,-2.90
2022-12-12T08:32:11.414Z,-2.90
2022-12-12T08:34:38.737Z,-3.00
2022-12-12T08:37:05.585Z,-3.00
2022-12-12T08:39:32.535Z,-3.00
2022-12-12T08:42:00.299Z,-2.90
2022-12-12T08:44:27.320Z,-3.00
2022-12-12T08:46:55.049Z,-2.90
2022-12-12T08:49:22.113Z,-2.80
2022-12-12T08:51:50.582Z,-2.80
2022-12-12T08:54:17.997Z,-2.90
2022-12-12T08:56:44.964Z,-2.80
2022-12-12T08:59:11.858Z,-2.80
2022-12-12T09:01:39.032Z,-2.80
2022-12-12T09:04:08.970Z,-2.70
2022-12-12T09:06:35.910Z,-2.60
2022-12-12T09:09:02.925Z,-2.60
2022-12-12T09:11:29.902Z,-2.50
2022-12-12T09:13:56.786Z,-2.50
2022-12-12T09:16:26.433Z,-2.50
2022-12-12T09:18:53.509Z,-2.50
2022-12-12T09:21:20.928Z,-2.50
2022-12-12T09:23:48.778Z,-2.50
2022-12-12T09:26:15.728Z,-2.50
2022-12-12T09:28:42.649Z,-2.50
2022-12-12T09:31:11.590Z,-2.40
2022-12-12T09:33:39.447Z,-2.30
2022-12-12T09:36:08.105Z,-2.40
2022-12-12T09:38:35.794Z,-2.40
2022-12-12T09:41:11.882Z,-2.40
2022-12-12T09:43:57.493Z,-2.30
2022-12-12T09:46:30.172Z,-2.40
2022-12-12T09:49:18.332Z,-2.40
2022-12-12T09:51:49.151Z,-2.20
2022-12-12T09:54:25.094Z,-2.20
2022-12-12T09:57:07.663Z,-2.30
2022-12-12T10:00:08.553Z,-2.30
2022-12-12T10:02:43.871Z,-2.20
2022-12-12T10:05:25.765Z,-2.20
2022-12-12T10:07:59.537Z,-2.20
2022-12-12T10:10:36.584Z,-2.10
2022-12-12T10:13:06.357Z,-2.10
2022-12-12T10:15:43.311Z,-2.00
2022-12-12T10:18:30.818Z,-1.80
2022-12-12T10:21:01.492Z,-1.70
2022-12-12T10:23:36.333Z,-1.80
2022-12-12T10:26:08.510Z,-1.80
2022-12-12T10:28:35.753Z,-1.80
2022-12-12T10:31:02.725Z,-1.80
2022-12-12T10:33:58.151Z,-1.70
2022-12-12T10:36:34.186Z,-1.70
2022-12-12T10:39:17.591Z,-1.80
2022-12-12T10:41:53.982Z,-1.80
2022-12-12T10:44:23.678Z,-1.80
2022-12-12T10:46:56.889Z,-1.70
2022-12-12T10:49:24.573Z,-1.70
2022-12-12T10:51:52.682Z,-1.50
2022-12-12T10:54:26.492Z,-1.70
2022-12-12T10:57:07.267Z,-1.70
2022-12-12T10:59:47.618Z,-1.70
2022-12-12T11:02:30.050Z,-1.80
2022-12-12T11:05:30.046Z,-1.60
2022-12-12T11:08:06.176Z,-1.80
2022-12-12T11:10:37.796Z,-1.80
2022-12-12T11:13:10.507Z,-1.80
2022-12-12T11:15:50.834Z,-1.70
2022-12-12T11:18:20.772Z,-1.70
2022-12-12T11:21:10.733Z,-1.80
2022-12-12T11:23:52.722Z,-1.80
2022-12-12T11:26:21.723Z,-1.80
2022-12-12T11:29:02.084Z,-1.80
2022-12-12T11:31:35.455Z,-1.70
2022-12-12T11:34:05.886Z,-1.80
2022-12-12T11:36:38.839Z,-1.70
2022-12-12T11:39:24.022Z,-1.80
2022-12-12T11:42:22.118Z,-1.70
2022-12-12T11:45:09.607Z,-1.70
2022-12-12T11:47:45.480Z,-1.20
2022-12-12T11:50:24.126Z,-1.70
2022-12-12T11:52:54.374Z,-1.70
2022-12-12T11:55:45.203Z,-1.60
2022-12-12T11:58:15.148Z,-1.60
2022-12-12T12:01:02.416Z,-1.70
2022-12-12T12:04:22.126Z,-1.70
2022-12-12T12:07:12.764Z,-1.70
2022-12-12T12:10:02.328Z,-1.70
2022-12-12T12:13:07.980Z,-1.50
2022-12-12T12:15:45.103Z,-1.70
2022-12-12T12:18:23.689Z,-1.60
2022-12-12T12:21:14.260Z,-1.60
2022-12-12T12:24:07.841Z,-1.50
2022-12-12T12:26:46.551Z,-1.60
2022-12-12T12:29:31.787Z,-1.50
2022-12-12T12:32:29.901Z,-1.50
2022-12-12T12:35:09.909Z,-1.50
2022-12-12T12:37:39.932Z,-1.50
2022-12-12T12:40:42.808Z,-1.40
2022-12-12T12:43:33.874Z,-1.30
2022-12-12T12:46:24.870Z,-1.40
2022-12-12T12:48:56.325Z,-1.40
2022-12-12T12:51:29.606Z,-1.40
2022-12-12T12:54:13.612Z,-1.40
2022-12-12T12:56:56.394Z,-1.30
2022-12-12T12:59:28.416Z,-1.20
2022-12-12T13:01:58.180Z,-1.20
2022-12-12T13:04:51.187Z,-1.20
2022-12-12T13:07:41.501Z,-1.20
2022-12-12T13:10:29.757Z,-1.20
2022-12-12T13:13:30.710Z,-1.20
2022-12-12T13:15:57.631Z,-1.10
2022-12-12T13:18:26.140Z,-1.10
2022-12-12T13:21:32.517Z,-1.20
2022-12-12T13:24:06.469Z,-1.30
2022-12-12T13:26:57.573Z,-1.30
2022-12-12T13:29:42.794Z,-1.30
2022-12-12T13:32:47.318Z,-1.30
2022-12-12T13:35:54.597Z,-1.20
2022-12-12T13:38:29.908Z,-1.30
2022-12-12T13:41:06.411Z,-1.20
2022-12-12T13:43:43.195Z,-1.30
2022-12-12T13:46:21.772Z,-1.20
2022-12-12T13:49:03.595Z,-1.20
2022-12-12T13:51:31.366Z,-1.20
2022-12-12T13:54:14.964Z,-1.40
2022-12-12T13:56:53.875Z,-1.40
2022-12-12T13:59:23.526Z,-1.20
2022-12-12T14:02:17.487Z,-1.30
2022-12-12T14:04:44.755Z,-1.40
2022-12-12T14:07:19.009Z,-1.30
2022-12-12T14:09:49.805Z,-1.20
2022-12-12T14:12:32.035Z,-1.20
2022-12-12T14:15:21.313Z,-1.30
2022-12-12T14:17:56.348Z,-1.40
2022-12-12T14:20:39.641Z,-1.30
2022-12-12T14:23:08.481Z,-1.40
2022-12-12T14:25:40.088Z,-1.30
2022-12-12T14:28:28.027Z,-1.40
2022-12-12T14:30:57.308Z,-1.30
2022-12-12T14:33:42.223Z,-1.40
2022-12-12T14:36:33.443Z,-1.40
2022-12-12T14:39:27.447Z,-1.40
2022-12-12T14:41:56.377Z,-1.40
2022-12-12T14:44:36.076Z,-1.30
2022-12-12T14:47:09.269Z,-1.30
2022-12-12T14:49:36.500Z,-1.30
2022-12-12T14:52:03.798Z,-1.30
2022-12-12T14:54:31.418Z,-1.20
2022-12-12T14:57:01.972Z,-1.30
2022-12-12T14:59:31.502Z,-1.30
2022-12-12T15:02:16.358Z,-1.30
2022-12-12T15:04:47.106Z,-1.30
2022-12-12T15:07:32.076Z,-1.30
2022-12-12T15:09:59.514Z,-1.30
2022-12-12T15:12:34.814Z,-1.30
2022-12-12T15:15:02.242Z,-1.40
2022-12-12T15:17:44.057Z,-1.20
2022-12-12T15:20:37.823Z,-1.20
2022-12-12T15:23:07.138Z,-1.20
2022-12-12T15:25:48.938Z,-1.10
2022-12-12T15:28:19.100Z,-1.20
2022-12-12T15:30:49.449Z,-1.30
2022-12-12T15:33:17.662Z,-1.30
2022-12-12T15:36:01.176Z,-1.30
2022-12-12T15:38:29.754Z,-1.30
2022-12-12T15:40:59.851Z,-1.30
2022-12-12T15:43:28.986Z,-1.30
2022-12-12T15:45:59.275Z,-1.40
2022-12-12T15:48:26.924Z,-1.40
2022-12-12T15:50:57.315Z,-1.50
2022-12-12T15:53:25.553Z,-1.40
2022-12-12T15:56:00.001Z,-1.40
2022-12-12T15:58:39.506Z,-1.30
2022-12-12T16:01:20.716Z,-1.30
2022-12-12T16:04:10.536Z,-1.30
2022-12-12T16:06:40.624Z,-1.40
2022-12-12T16:09:07.533Z,-1.30
2022-12-12T16:11:39.813Z,-1.30
2022-12-12T16:14:35.507Z,-1.30
2022-12-12T16:17:26.058Z,-1.20
2022-12-12T16:20:04.897Z,-1.40
2022-12-12T16:22:34.530Z,-1.40
2022-12-12T16:25:24.646Z,-1.40
2022-12-12T16:28:01.204Z,-1.30
2022-12-12T16:30:28.922Z,-1.30
2022-12-12T16:32:55.876Z,-1.30
2022-12-12T16:35:24.238Z,-1.40
2022-12-12T16:37:53.957Z,-1.40
2022-12-12T16:40:21.869Z,-1.40
2022-12-12T16:43:04.803Z,-1.40
2022-12-12T16:45:34.855Z,-1.40
2022-12-12T16:48:01.915Z,-1.40
2022-12-12T16:50:28.956Z,-1.40
2022-12-12T16:52:55.890Z,-1.30
2022-12-12T16:55:23.810Z,-1.40
2022-12-12T16:57:50.854Z,-1.40
2022-12-12T17:00:20.511Z,-1.40
2022-12-12T17:02:47.469Z,-1.40
2022-12-12T17:05:22.444Z,-1.30
2022-12-12T17:07:51.453Z,-1.30
2022-12-12T17:10:19.502Z,-1.30
2022-12-12T17:12:47.188Z,-1.20
2022-12-12T17:15:28.902Z,-1.20
2022-12-12T17:17:56.883Z,-1.10
2022-12-12T17:20:25.977Z,-1.20
2022-12-12T17:22:53.077Z,-1.10
2022-12-12T17:25:21.560Z,-1.10
2022-12-12T17:27:49.444Z,-1.20
2022-12-12T17:30:16.720Z,-1.30
2022-12-12T17:33:30.686Z,-1.30
2022-12-12T17:35:31.703Z,-1.20
2022-12-12T17:37:59.465Z,-1.20
2022-12-12T17:40:30.370Z,-1.20
2022-12-12T17:42:57.943Z,-1.20
2022-12-12T17:45:24.967Z,-1.20
2022-12-12T17:47:51.980Z,-1.20
2022-12-12T17:50:19.386Z,-1.20
2022-12-12T17:52:46.402Z,-1.20
2022-12-12T17:55:54.778Z,-1.20
2022-12-12T17:58:00.205Z,-1.20
2022-12-12T18:00:27.248Z,-1.20
2022-12-12T18:02:54.108Z,-1.20
2022-12-12T18:05:21.052Z,-1.20
2022-12-12T18:07:48.072Z,-1.20
2022-12-12T18:10:15.206Z,-1.20
2022-12-12T18:12:48.262Z,-1.20
2022-12-12T18:15:18.407Z,-1.10
2022-12-12T18:17:45.453Z,-1.10
2022-12-12T18:20:12.890Z,-1.10
2022-12-12T18:22:39.971Z,-1.10
2022-12-12T18:25:07.441Z,-1.10
2022-12-12T18:27:34.434Z,-1.10
2022-12-12T18:30:05.442Z,-1.10
2022-12-12T18:32:32.476Z,-1.10
2022-12-12T18:34:59.808Z,-1.10
2022-12-12T18:37:26.762Z,-1.10
2022-12-12T18:39:53.676Z,-1.10
2022-12-12T18:42:21.825Z,-1.10
2022-12-12T18:44:48.859Z,-1.00
2022-12-12T18:47:15.786Z,-1.00
2022-12-12T18:49:42.676Z,-0.90
2022-12-12T18:52:09.706Z,-1.00
2022-12-12T18:54:36.838Z,-1.00
2022-12-12T18:57:03.813Z,-1.00
2022-12-12T18:59:30.831Z,-1.00
2022-12-12T19:01:58.108Z,-1.00
2022-12-12T19:04:25.235Z,-1.00
2022-12-12T19:06:52.731Z,-1.00
2022-12-12T19:09:20.422Z,-1.00
2022-12-12T19:11:48.004Z,-0.90
2022-12-12T19:14:16.998Z,-0.90
2022-12-12T19:16:45.234Z,-0.90
2022-12-12T19:19:12.404Z,-1.00
2022-12-12T19:21:40.740Z,-0.90
2022-12-12T19:24:12.626Z,-0.90
2022-12-12T19:26:43.849Z,-0.90
2022-12-12T19:29:14.303Z,-0.90
2022-12-12T19:31:41.295Z,-0.90
2022-12-12T19:34:10.298Z,-0.90
2022-12-12T19:36:37.318Z,-0.90
2022-12-12T19:39:06.725Z,-0.90
2022-12-12T19:41:34.347Z,-0.90
2022-12-12T19:44:02.112Z,-0.90
2022-12-12T19:46:31.166Z,-0.90
2022-12-12T19:49:00.980Z,-0.90
2022-12-12T19:51:29.536Z,-0.90
2022-12-12T19:53:58.506Z,-0.90
2022-12-12T19:56:31.015Z,-0.90
2022-12-12T19:58:58.981Z,-0.90
2022-12-12T20:01:28.769Z,-0.90
2022-12-12T20:04:03.319Z,-0.90
2022-12-12T20:06:30.210Z,-0.80
2022-12-12T20:09:00.137Z,-0.80
2022-12-12T20:11:27.642Z,-0.80
2022-12-12T20:13:57.049Z,-0.80
2022-12-12T20:16:26.216Z,-0.80
2022-12-12T20:18:53.607Z,-0.80
2022-12-12T20:21:59.274Z,-0.80
2022-12-12T20:24:12.874Z,-0.70
2022-12-12T20:26:40.681Z,-0.70
2022-12-12T20:29:08.884Z,-0.70
2022-12-12T20:31:38.412Z,-0.70
2022-12-12T20:34:05.913Z,-0.70
2022-12-12T20:36:35.006Z,-0.70
2022-12-12T20:39:06.457Z,-0.70
2022-12-12T20:41:37.712Z,-0.70
2022-12-12T20:44:05.925Z,-0.70
2022-12-12T20:46:38.522Z,-0.70
2022-12-12T20:49:09.456Z,-0.70
2022-12-12T20:54:24.622Z,-0.70
2022-12-12T20:56:53.503Z,-0.70
2022-12-12T20:59:20.421Z,-0.70
2022-12-12T21:01:47.765Z,-0.70
2022-12-12T21:04:15.329Z,-0.70
2022-12-12T21:06:44.962Z,-0.60
2022-12-12T21:09:16.310Z,-0.60
2022-12-12T21:11:46.499Z,-0.70
2022-12-12T21:14:13.993Z,-0.60
2022-12-12T21:16:41.112Z,-0.60
2022-12-12T21:19:11.593Z,-0.60
2022-12-12T21:21:40.604Z,-0.60
2022-12-12T21:24:08.199Z,-0.60
2022-12-12T21:26:35.248Z,-0.60
2022-12-12T21:29:02.749Z,-0.60
2022-12-12T21:31:32.718Z,-0.60
2022-12-12T21:34:00.525Z,-0.60
2022-12-12T21:36:28.969Z,-0.70
2022-12-12T21:38:57.594Z,-0.60
2022-12-12T21:41:25.759Z,-0.60
2022-12-12T21:43:52.932Z,-0.60
2022-12-12T21:46:23.148Z,-0.60
2022-12-12T21:49:11.277Z,-0.60
2022-12-12T21:51:39.521Z,-0.50
2022-12-12T21:54:09.351Z,-0.60
2022-12-12T21:56:36.425Z,-0.60
2022-12-12T21:59:04.541Z,-0.60
2022-12-12T22:01:32.798Z,-0.60
2022-12-12T22:04:00.214Z,-0.70
2022-12-12T22:06:32.602Z,-0.60
2022-12-12T22:09:01.376Z,-0.60
2022-12-12T22:11:41.144Z,-0.70
2022-12-12T22:14:17.595Z,-0.60
2022-12-12T22:16:44.830Z,-0.60
2022-12-12T22:19:14.110Z,-0.60
2022-12-12T22:21:41.385Z,-0.70
2022-12-12T22:24:08.975Z,-0.70
2022-12-12T22:26:38.931Z,-0.70
2022-12-12T22:29:09.934Z,-0.60
2022-12-12T22:31:38.795Z,-0.60
2022-12-12T22:34:21.244Z,-0.70
2022-12-12T22:36:48.542Z,-0.60
2022-12-12T22:39:18.334Z,-0.60
2022-12-12T22:41:45.973Z,-0.70
2022-12-12T22:44:15.905Z,-0.70
2022-12-12T22:46:45.020Z,-0.70
2022-12-12T22:49:14.987Z,-0.70
2022-12-12T22:51:43.123Z,-0.70
2022-12-12T22:54:10.371Z,-0.70
2022-12-12T22:56:39.003Z,-0.70
2022-12-12T22:59:06.871Z,-0.70
2022-12-12T23:01:34.205Z,-0.70
2022-12-12T23:04:01.307Z,-0.70
2022-12-12T23:06:30.799Z,-0.70
2022-12-12T23:08:59.745Z,-0.70
2022-12-12T23:11:29.239Z,-0.80
2022-12-12T23:14:03.213Z,-0.80
2022-12-12T23:16:35.592Z,-0.80
2022-12-12T23:19:04.460Z,-0.80
2022-12-12T23:21:31.356Z,-0.80
2022-12-12T23:23:58.226Z,-0.80
2022-12-12T23:26:29.993Z,-0.80
2022-12-12T23:29:00.365Z,-0.80
2022-12-12T23:31:31.088Z,-0.80
2022-12-12T23:34:00.693Z,-0.90
2022-12-12T23:36:28.414Z,-0.90
2022-12-12T23:38:57.104Z,-0.90
2022-12-12T23:41:24.545Z,-0.90
2022-12-12T23:43:51.814Z,-0.90
2022-12-12T23:46:34.314Z,-0.90
2022-12-12T23:49:06.789Z,-0.90
2022-12-12T23:51:39.860Z,-0.90
2022-12-12T23:54:07.919Z,-0.80
2022-12-12T23:56:35.580Z,-0.90
2022-12-12T23:59:02.873Z,-0.90
